METAR Data
IDs: Format: Raw Decoded Include TAF

Data at: 1433 UTC 11 Dec 2018

KMDD 111415Z AUTO 19009KT 10SM 06/04 A3024 RMK AO2 T00560040
KMDD 111355Z AUTO 18010KT 10SM 06/04 A3023 RMK AO2 T00550038
KMDD 111335Z AUTO 18009KT 10SM 05/04 A3024 RMK AO2 T00520036
KMDD 111315Z AUTO 19008KT 10SM 05/04 A3024 RMK AO2 T00520036
KMDD 111255Z AUTO 19009KT 10SM 05/03 A3024 RMK AO2 T00500033
KMDD 111235Z AUTO 19009KT 10SM 05/03 A3024 RMK AO2 T00500032
KMDD 111215Z AUTO 18009KT 10SM 05/03 A3024 RMK AO2 T00480031
KMDD 111155Z AUTO 19009KT 10SM 05/03 A3024 RMK AO2 T00450030 10045 20020
KMDD 111135Z AUTO 19007KT 10SM 04/03 A3025 RMK AO2 T00400025
KMDD 111115Z AUTO 20006KT 7SM 04/02 A3026 RMK AO2 T00370024
KMDD 111055Z AUTO 19005KT 7SM 04/02 A3026 RMK AO2 T00370023
KMDD 111035Z AUTO 21006KT 7SM 04/03 A3026 RMK AO2 T00370025
KMDD 111015Z AUTO 19006KT 5SM BR 03/02 A3026 RMK AO2 T00340022
KMDD 110955Z AUTO 21006KT 5SM BR 03/02 A3027 RMK AO2 T00320021
KMDD 110935Z AUTO 19005KT 5SM BR 03/02 A3027 RMK AO2 T00310019
KMDD 110915Z AUTO 18005KT 5SM BR 04/02 A3028 RMK AO2 T00350022
KMDD 110855Z AUTO 20005KT 5SM BR 04/03 A3028 RMK AO2 T00380026
KMDD 110835Z AUTO 19005KT 5SM BR 04/03 A3029 RMK AO2 T00380026
KMDD 110815Z AUTO 19006KT 5SM BR 04/03 A3029 RMK AO2 T00400028
KMDD 110755Z AUTO 19005KT 5SM BR 04/03 A3029 RMK AO2 T00380026
KMDD 110735Z AUTO 19007KT 4SM BR 04/02 A3030 RMK AO2 T00350022
KMDD 110715Z AUTO 16004KT 3SM BR 03/02 A3029 RMK AO2 T00300017
KMDD 110655Z AUTO 18003KT 2 1/2SM BR 03/02 A3030 RMK AO2 T00280016
KMDD 110635Z AUTO 00000KT 1 3/4SM BR 02/01 A3031 RMK AO2 T00200006
KMDD 110615Z AUTO 00000KT 2SM BR 02/01 A3031 RMK AO2 T00230011
KMDD 110555Z AUTO 00000KT 2 1/2SM BR 02/01 A3032 RMK AO2 T00220010 10101 20022 401461012
KMDD 110535Z AUTO 00000KT 2 1/2SM BR 02/01 A3033 RMK AO2 T00240012
KMDD 110515Z AUTO 00000KT 2SM BR 02/01 A3033 RMK AO2 T00230011
KMDD 110455Z AUTO 00000KT 2 1/2SM BR 03/01 A3033 RMK AO2 T00270014
KMDD 110435Z AUTO 00000KT 2SM BR 03/02 A3033 RMK AO2 T00300017
KMDD 110415Z AUTO 00000KT 2 1/2SM BR 03/02 A3033 RMK AO2 T00300018
KMDD 110355Z AUTO 00000KT 2 1/2SM BR 03/02 A3034 RMK AO2 T00330020
KMDD 110335Z AUTO 00000KT 2 1/2SM BR 04/02 A3033 RMK AO2 T00380023
KMDD 110315Z AUTO 00000KT 3SM BR 04/03 A3034 RMK AO2 T00420027
KMDD 110255Z AUTO 00000KT 3SM BR 05/03 A3034 RMK AO2 T00460029
KMDD 110235Z AUTO 00000KT 4SM BR 05/04 A3033 RMK AO2 T00530035
KMDD 110215Z AUTO 21003KT 4SM BR 06/04 A3033 RMK AO2 T00560035
KMDD 110155Z AUTO 19003KT 5SM HZ 06/04 A3033 RMK AO2 T00590035
KMDD 110135Z AUTO 00000KT 5SM HZ 07/04 A3033 RMK AO2 T00650037
KMDD 110115Z AUTO 19004KT 7SM 07/04 A3033 RMK AO2 T00710041
KMDD 110055Z AUTO 19004KT 10SM 08/04 A3032 RMK AO2 T00760041
KMDD 110035Z AUTO 20005KT 10SM 08/05 A3031 RMK AO2 T00820046
KMDD 110015Z AUTO 19006KT 10SM 09/05 A3031 RMK AO2 T00910046
KMDD 102355Z AUTO 20005KT 10SM 10/05 A3031 RMK AO2 T01020048 10146 20102
KMDD 102335Z AUTO 21006KT 10SM 11/05 A3030 RMK AO2 T01110046
KMDD 102315Z AUTO 21006KT 10SM 12/04 A3031 RMK AO2 T01200040
KMDD 102255Z AUTO 20005KT 10SM 13/04 A3031 RMK AO2 T01290042
KMDD 102235Z AUTO 21005KT 10SM 13/04 A3031 RMK AO2 T01330043
KMDD 102215Z AUTO 21006KT 10SM 14/05 A3030 RMK AO2 T01360046
KMDD 102155Z AUTO 20006KT 10SM 14/05 A3030 RMK AO2 T01420048
KMDD 102135Z AUTO 23004KT 10SM 14/05 A3030 RMK AO2 T01420048
KMDD 102115Z AUTO 28005KT 10SM 14/05 A3031 RMK AO2 T01430047
KMDD 102055Z AUTO 22005KT 10SM 14/05 A3030 RMK AO2 T01440048
KMDD 102035Z AUTO 24003KT 10SM 14/05 A3031 RMK AO2 T01430051
KMDD 102015Z AUTO 23006KT 10SM 14/05 A3032 RMK AO2 T01420048
KMDD 101955Z AUTO 27007KT 10SM 14/04 A3033 RMK AO2 T01440043
KMDD 101935Z AUTO 25009KT 10SM 14/04 A3033 RMK AO2 T01400043
KMDD 101915Z AUTO 25007KT 10SM 14/05 A3034 RMK AO2 T01350046
KMDD 101855Z AUTO 25007KT 10SM 13/05 A3035 RMK AO2 T01260045
KMDD 101835Z AUTO 25005KT 10SM 13/05 A3036 RMK AO2 T01250049
KMDD 101815Z AUTO 26007KT 10SM 12/05 A3037 RMK AO2 T01150047
KMDD 101755Z AUTO 23007KT 10SM 11/05 A3039 RMK AO2 T01070048 10107 21011
KMDD 101735Z AUTO 24005KT 7SM 10/05 A3040 RMK AO2 T00970045
KMDD 101715Z AUTO 25006KT 7SM 09/04 A3041 RMK AO2 T00910043
KMDD 101655Z AUTO 27006KT 7SM 08/04 A3042 RMK AO2 T00810037
KMDD 101635Z AUTO 26007KT 5SM HZ 07/04 A3042 RMK AO2 T00670035
KMDD 101615Z AUTO 27006KT 5SM HZ 06/03 A3042 RMK AO2 T00560026
KMDD 101555Z AUTO 27004KT 5SM BR 05/03 A3042 RMK AO2 T00470025
KMDD 101535Z AUTO 26005KT 4SM BR 04/02 A3041 RMK AO2 T00370020
KMDD 101515Z AUTO 28005KT 4SM BR 03/02 A3041 RMK AO2 T00270015
KMDD 101455Z AUTO 29005KT 3SM BR 02/01 A3040 RMK AO2 T00160006
KMDD 101435Z AUTO 29004KT 3SM BR 01/00 A3040 RMK AO2 T00080000
KMDD 101415Z AUTO 28004KT 3SM BR 00/00 A3040 RMK AO2 T00001005
KMDD 101355Z AUTO 28004KT 2 1/2SM BR 00/M01 A3039 RMK AO2 T10051011
KMDD 101335Z AUTO 28005KT 3SM BR M01/M01 A3040 RMK AO2 T10061014
KMDD 101315Z AUTO 30004KT 4SM BR M01/M02 A3039 RMK AO2 T10101018
KMDD 101255Z AUTO 00000KT 5SM BR M01/M02 A3039 RMK AO2 T10101017
KMDD 101235Z AUTO 29003KT 5SM BR M01/M02 A3038 RMK AO2 T10101019
KMDD 101215Z AUTO 28004KT 5SM BR M01/M02 A3038 RMK AO2 T10101018
KMDD 101155Z AUTO 28004KT 5SM BR M01/M02 A3037 RMK AO2 T10121020 10011 21012
KMDD 101135Z AUTO 29003KT 5SM BR M01/M02 A3037 RMK AO2 T10101018
KMDD 101115Z AUTO 28004KT 5SM BR 00/M01 A3037 RMK AO2 T10051013
KMDD 101055Z AUTO 28005KT 5SM BR 00/M01 A3037 RMK AO2 T10051014
KMDD 101035Z AUTO 27005KT 4SM BR M01/M02 A3037 RMK AO2 T10081016
KMDD 101015Z AUTO 27005KT 5SM BR M01/M02 A3037 RMK AO2 T10081016
KMDD 100955Z AUTO 28003KT 5SM BR M01/M02 A3037 RMK AO2 T10111020
KMDD 100935Z AUTO 00000KT 5SM BR M01/M02 A3037 RMK AO2 T10101020
KMDD 100915Z AUTO 26003KT 5SM BR M01/M02 A3038 RMK AO2 T10071016
KMDD 100855Z AUTO 27003KT 5SM BR 00/M01 A3038 RMK AO2 T10051015
KMDD 100835Z AUTO 29004KT 5SM BR 00/M01 A3039 RMK AO2 T10031012
KMDD 100815Z AUTO 25003KT 5SM BR 00/M01 A3039 RMK AO2 T00001010
KMDD 100755Z AUTO 28003KT 5SM BR 00/M01 A3039 RMK AO2 T00001008
KMDD 100735Z AUTO 28004KT 5SM BR 00/M01 A3038 RMK AO2 T00001008
KMDD 100715Z AUTO 28003KT 5SM BR 00/00 A3039 RMK AO2 T00021005
KMDD 100655Z AUTO 28003KT 5SM BR 00/00 A3040 RMK AO2 T00041005
KMDD 100635Z AUTO 27003KT 5SM BR 01/00 A3040 RMK AO2 T00061004
KMDD 100615Z AUTO 27004KT 5SM BR 01/00 A3040 RMK AO2 T00100000
KMDD 100555Z AUTO 00000KT 7SM 01/00 A3041 RMK AO2 T00110000 10076 20011 401131011
KMDD 100535Z AUTO 00000KT 7SM 01/00 A3040 RMK AO2 T00130000
KMDD 100515Z AUTO 00000KT 7SM 02/00 A3040 RMK AO2 T00160001
KMDD 100455Z AUTO 00000KT 5SM BR 02/00 A3040 RMK AO2 T00190002
KMDD 100435Z AUTO 01003KT 7SM 02/01 A3040 RMK AO2 T00220005
KMDD 100415Z AUTO 36003KT 7SM 03/01 A3039 RMK AO2 T00260007
KMDD 100355Z AUTO 00000KT 7SM 03/01 A3039 RMK AO2 T00270007
KMDD 100335Z AUTO 00000KT 7SM 03/00 A3039 RMK AO2 T00260003
KMDD 100315Z AUTO 00000KT 7SM 03/01 A3039 RMK AO2 T00330009
KMDD 100255Z AUTO 36004KT 7SM 04/01 A3039 RMK AO2 T00360010
KMDD 100235Z AUTO 01003KT 7SM 04/01 A3039 RMK AO2 T00410011